sensor_id;sensor_type;location;lat;lon;timestamp;P1;durP1;ratioP1;P2;durP2;ratioP2
36547;SDS011;22551;52.206;4.856;2023-02-15T00:01:15;42.05;;;19.58;;
36547;SDS011;22551;52.206;4.856;2023-02-15T00:06:19;43.88;;;19.75;;
36547;SDS011;22551;52.206;4.856;2023-02-15T00:11:21;46.15;;;21.95;;
36547;SDS011;22551;52.206;4.856;2023-02-15T00:16:38;49.72;;;21.20;;
36547;SDS011;22551;52.206;4.856;2023-02-15T00:21:44;52.08;;;22.98;;
36547;SDS011;22551;52.206;4.856;2023-02-15T00:26:47;48.10;;;22.25;;
36547;SDS011;22551;52.206;4.856;2023-02-15T00:31:50;57.53;;;22.95;;
36547;SDS011;22551;52.206;4.856;2023-02-15T00:36:54;49.67;;;22.15;;
36547;SDS011;22551;52.206;4.856;2023-02-15T00:41:56;51.70;;;22.13;;
36547;SDS011;22551;52.206;4.856;2023-02-15T00:46:59;49.33;;;22.30;;
36547;SDS011;22551;52.206;4.856;2023-02-15T00:52:02;44.72;;;20.92;;
36547;SDS011;22551;52.206;4.856;2023-02-15T00:57:05;47.60;;;20.77;;
36547;SDS011;22551;52.206;4.856;2023-02-15T01:02:07;44.72;;;20.30;;
36547;SDS011;22551;52.206;4.856;2023-02-15T01:07:10;41.15;;;20.38;;
36547;SDS011;22551;52.206;4.856;2023-02-15T01:12:12;50.28;;;20.63;;
36547;SDS011;22551;52.206;4.856;2023-02-15T01:17:15;46.25;;;21.90;;
36547;SDS011;22551;52.206;4.856;2023-02-15T01:22:18;46.75;;;21.13;;
36547;SDS011;22551;52.206;4.856;2023-02-15T01:27:20;44.92;;;21.42;;
36547;SDS011;22551;52.206;4.856;2023-02-15T01:32:23;43.78;;;19.50;;
36547;SDS011;22551;52.206;4.856;2023-02-15T01:37:29;44.47;;;20.27;;
36547;SDS011;22551;52.206;4.856;2023-02-15T01:42:32;41.67;;;19.15;;
36547;SDS011;22551;52.206;4.856;2023-02-15T01:47:35;40.75;;;19.95;;
36547;SDS011;22551;52.206;4.856;2023-02-15T01:52:42;42.20;;;18.35;;
36547;SDS011;22551;52.206;4.856;2023-02-15T01:57:50;39.40;;;17.95;;
36547;SDS011;22551;52.206;4.856;2023-02-15T02:02:53;41.28;;;19.05;;
36547;SDS011;22551;52.206;4.856;2023-02-15T02:07:59;36.45;;;17.70;;
36547;SDS011;22551;52.206;4.856;2023-02-15T02:13:05;32.25;;;16.33;;
36547;SDS011;22551;52.206;4.856;2023-02-15T02:18:11;33.95;;;17.15;;
36547;SDS011;22551;52.206;4.856;2023-02-15T02:23:29;34.28;;;17.23;;
36547;SDS011;22551;52.206;4.856;2023-02-15T02:28:59;33.33;;;15.77;;
36547;SDS011;22551;52.206;4.856;2023-02-15T02:34:48;34.10;;;15.02;;
36547;SDS011;22551;52.206;4.856;2023-02-15T02:39:59;30.92;;;15.38;;
36547;SDS011;22551;52.206;4.856;2023-02-15T02:45:09;39.30;;;15.27;;
36547;SDS011;22551;52.206;4.856;2023-02-15T02:50:21;31.38;;;14.10;;
36547;SDS011;22551;52.206;4.856;2023-02-15T02:55:28;30.70;;;14.70;;
36547;SDS011;22551;52.206;4.856;2023-02-15T03:00:34;27.27;;;12.65;;
36547;SDS011;22551;52.206;4.856;2023-02-15T03:05:43;28.73;;;14.00;;
36547;SDS011;22551;52.206;4.856;2023-02-15T03:10:48;26.95;;;13.10;;
36547;SDS011;22551;52.206;4.856;2023-02-15T03:15:54;28.40;;;13.98;;
36547;SDS011;22551;52.206;4.856;2023-02-15T03:21:16;30.60;;;14.70;;
36547;SDS011;22551;52.206;4.856;2023-02-15T03:26:22;32.50;;;14.70;;
36547;SDS011;22551;52.206;4.856;2023-02-15T03:31:26;35.05;;;14.68;;
36547;SDS011;22551;52.206;4.856;2023-02-15T03:36:34;42.45;;;16.00;;
36547;SDS011;22551;52.206;4.856;2023-02-15T03:41:49;32.50;;;14.50;;
36547;SDS011;22551;52.206;4.856;2023-02-15T03:47:00;36.55;;;15.90;;
36547;SDS011;22551;52.206;4.856;2023-02-15T03:52:11;31.63;;;14.50;;
36547;SDS011;22551;52.206;4.856;2023-02-15T03:57:15;29.17;;;14.90;;
36547;SDS011;22551;52.206;4.856;2023-02-15T04:02:39;35.10;;;14.23;;
36547;SDS011;22551;52.206;4.856;2023-02-15T04:07:52;34.33;;;15.48;;
36547;SDS011;22551;52.206;4.856;2023-02-15T04:12:54;34.60;;;16.35;;
36547;SDS011;22551;52.206;4.856;2023-02-15T04:17:57;36.03;;;15.95;;
36547;SDS011;22551;52.206;4.856;2023-02-15T04:23:01;42.45;;;16.40;;
36547;SDS011;22551;52.206;4.856;2023-02-15T04:28:24;34.85;;;14.65;;
36547;SDS011;22551;52.206;4.856;2023-02-15T04:33:26;38.20;;;17.10;;
36547;SDS011;22551;52.206;4.856;2023-02-15T04:38:30;36.75;;;16.38;;
36547;SDS011;22551;52.206;4.856;2023-02-15T04:43:32;41.03;;;17.92;;
36547;SDS011;22551;52.206;4.856;2023-02-15T04:48:34;34.47;;;16.00;;
36547;SDS011;22551;52.206;4.856;2023-02-15T04:53:38;40.92;;;18.40;;
36547;SDS011;22551;52.206;4.856;2023-02-15T04:58:40;41.80;;;17.60;;
36547;SDS011;22551;52.206;4.856;2023-02-15T05:03:42;41.20;;;17.83;;
36547;SDS011;22551;52.206;4.856;2023-02-15T05:08:45;38.20;;;16.38;;
36547;SDS011;22551;52.206;4.856;2023-02-15T05:13:47;35.42;;;16.60;;
36547;SDS011;22551;52.206;4.856;2023-02-15T05:18:49;40.70;;;15.65;;
36547;SDS011;22551;52.206;4.856;2023-02-15T05:23:53;37.47;;;15.73;;
36547;SDS011;22551;52.206;4.856;2023-02-15T05:28:55;38.60;;;16.05;;
36547;SDS011;22551;52.206;4.856;2023-02-15T05:33:57;37.85;;;17.35;;
36547;SDS011;22551;52.206;4.856;2023-02-15T05:39:01;37.10;;;16.90;;
36547;SDS011;22551;52.206;4.856;2023-02-15T05:44:05;43.15;;;16.90;;
36547;SDS011;22551;52.206;4.856;2023-02-15T05:49:08;39.92;;;16.92;;
36547;SDS011;22551;52.206;4.856;2023-02-15T05:54:11;38.30;;;16.92;;
36547;SDS011;22551;52.206;4.856;2023-02-15T05:59:13;44.67;;;17.20;;
36547;SDS011;22551;52.206;4.856;2023-02-15T06:04:15;43.47;;;17.98;;
36547;SDS011;22551;52.206;4.856;2023-02-15T06:09:19;42.35;;;16.75;;
36547;SDS011;22551;52.206;4.856;2023-02-15T06:14:21;38.33;;;17.27;;
36547;SDS011;22551;52.206;4.856;2023-02-15T06:19:23;42.58;;;16.70;;
36547;SDS011;22551;52.206;4.856;2023-02-15T06:24:27;37.92;;;16.15;;
36547;SDS011;22551;52.206;4.856;2023-02-15T06:29:29;33.83;;;16.45;;
36547;SDS011;22551;52.206;4.856;2023-02-15T06:34:31;35.03;;;16.13;;
36547;SDS011;22551;52.206;4.856;2023-02-15T06:39:35;45.83;;;17.25;;
36547;SDS011;22551;52.206;4.856;2023-02-15T06:44:37;40.78;;;17.33;;
36547;SDS011;22551;52.206;4.856;2023-02-15T06:49:40;35.95;;;15.00;;
36547;SDS011;22551;52.206;4.856;2023-02-15T06:54:43;38.45;;;16.73;;
36547;SDS011;22551;52.206;4.856;2023-02-15T06:59:45;35.78;;;17.35;;
36547;SDS011;22551;52.206;4.856;2023-02-15T07:04:47;44.47;;;19.00;;
36547;SDS011;22551;52.206;4.856;2023-02-15T07:09:51;46.90;;;20.23;;
36547;SDS011;22551;52.206;4.856;2023-02-15T07:14:53;46.55;;;16.52;;
36547;SDS011;22551;52.206;4.856;2023-02-15T07:19:55;41.85;;;17.90;;
36547;SDS011;22551;52.206;4.856;2023-02-15T07:24:59;48.05;;;18.35;;
36547;SDS011;22551;52.206;4.856;2023-02-15T07:30:01;44.20;;;18.13;;
36547;SDS011;22551;52.206;4.856;2023-02-15T07:35:04;43.80;;;17.70;;
36547;SDS011;22551;52.206;4.856;2023-02-15T07:40:09;39.80;;;17.15;;
36547;SDS011;22551;52.206;4.856;2023-02-15T07:45:12;41.92;;;17.98;;
36547;SDS011;22551;52.206;4.856;2023-02-15T07:50:14;45.88;;;17.65;;
36547;SDS011;22551;52.206;4.856;2023-02-15T07:55:18;45.95;;;19.38;;
36547;SDS011;22551;52.206;4.856;2023-02-15T08:00:21;52.72;;;20.85;;
36547;SDS011;22551;52.206;4.856;2023-02-15T08:05:24;49.20;;;20.80;;
36547;SDS011;22551;52.206;4.856;2023-02-15T08:10:28;45.90;;;20.52;;
36547;SDS011;22551;52.206;4.856;2023-02-15T08:15:47;55.10;;;21.95;;
36547;SDS011;22551;52.206;4.856;2023-02-15T08:20:50;47.00;;;22.30;;
36547;SDS011;22551;52.206;4.856;2023-02-15T08:25:54;53.17;;;23.65;;
36547;SDS011;22551;52.206;4.856;2023-02-15T08:30:56;51.88;;;22.38;;
36547;SDS011;22551;52.206;4.856;2023-02-15T08:36:07;57.88;;;23.55;;
36547;SDS011;22551;52.206;4.856;2023-02-15T08:41:13;56.07;;;22.63;;
36547;SDS011;22551;52.206;4.856;2023-02-15T08:46:19;53.20;;;21.50;;
36547;SDS011;22551;52.206;4.856;2023-02-15T08:51:23;51.95;;;23.10;;
36547;SDS011;22551;52.206;4.856;2023-02-15T08:56:28;58.25;;;22.73;;
36547;SDS011;22551;52.206;4.856;2023-02-15T09:01:34;58.75;;;25.20;;
36547;SDS011;22551;52.206;4.856;2023-02-15T09:06:36;55.22;;;24.23;;
36547;SDS011;22551;52.206;4.856;2023-02-15T09:11:42;61.30;;;25.08;;
36547;SDS011;22551;52.206;4.856;2023-02-15T09:16:46;58.85;;;24.58;;
36547;SDS011;22551;52.206;4.856;2023-02-15T09:26:54;58.85;;;24.13;;
36547;SDS011;22551;52.206;4.856;2023-02-15T09:31:57;58.63;;;25.17;;
36547;SDS011;22551;52.206;4.856;2023-02-15T09:36:59;60.85;;;26.30;;
36547;SDS011;22551;52.206;4.856;2023-02-15T09:42:07;54.67;;;24.13;;
36547;SDS011;22551;52.206;4.856;2023-02-15T09:47:38;56.15;;;24.92;;
36547;SDS011;22551;52.206;4.856;2023-02-15T09:53:00;57.75;;;25.60;;
36547;SDS011;22551;52.206;4.856;2023-02-15T09:58:31;62.35;;;26.15;;
36547;SDS011;22551;52.206;4.856;2023-02-15T10:03:48;60.80;;;27.80;;
36547;SDS011;22551;52.206;4.856;2023-02-15T10:09:08;60.38;;;28.10;;
36547;SDS011;22551;52.206;4.856;2023-02-15T10:14:37;63.67;;;26.27;;
36547;SDS011;22551;52.206;4.856;2023-02-15T10:20:14;56.10;;;25.02;;
36547;SDS011;22551;52.206;4.856;2023-02-15T10:25:30;59.20;;;26.10;;
36547;SDS011;22551;52.206;4.856;2023-02-15T10:30:43;55.67;;;25.50;;
36547;SDS011;22551;52.206;4.856;2023-02-15T10:35:51;48.97;;;22.20;;
36547;SDS011;22551;52.206;4.856;2023-02-15T10:41:06;51.08;;;23.15;;
36547;SDS011;22551;52.206;4.856;2023-02-15T10:46:27;52.17;;;25.25;;
36547;SDS011;22551;52.206;4.856;2023-02-15T10:51:58;47.63;;;22.83;;
36547;SDS011;22551;52.206;4.856;2023-02-15T10:57:19;55.95;;;23.17;;
36547;SDS011;22551;52.206;4.856;2023-02-15T11:02:35;51.33;;;22.40;;
36547;SDS011;22551;52.206;4.856;2023-02-15T11:07:55;50.03;;;22.55;;
36547;SDS011;22551;52.206;4.856;2023-02-15T11:13:02;53.63;;;24.65;;
36547;SDS011;22551;52.206;4.856;2023-02-15T11:18:13;48.05;;;23.20;;
36547;SDS011;22551;52.206;4.856;2023-02-15T11:23:22;48.88;;;22.98;;
36547;SDS011;22551;52.206;4.856;2023-02-15T11:28:29;51.10;;;23.27;;
36547;SDS011;22551;52.206;4.856;2023-02-15T11:33:35;49.85;;;22.55;;
36547;SDS011;22551;52.206;4.856;2023-02-15T11:38:41;57.33;;;25.17;;
36547;SDS011;22551;52.206;4.856;2023-02-15T11:43:46;48.63;;;23.23;;
36547;SDS011;22551;52.206;4.856;2023-02-15T11:48:55;51.45;;;24.20;;
36547;SDS011;22551;52.206;4.856;2023-02-15T11:53:58;48.22;;;21.92;;
36547;SDS011;22551;52.206;4.856;2023-02-15T11:59:02;54.97;;;23.80;;
36547;SDS011;22551;52.206;4.856;2023-02-15T12:04:16;58.55;;;25.73;;
36547;SDS011;22551;52.206;4.856;2023-02-15T12:09:25;50.08;;;25.40;;
36547;SDS011;22551;52.206;4.856;2023-02-15T12:14:40;52.67;;;24.90;;
36547;SDS011;22551;52.206;4.856;2023-02-15T12:19:51;57.90;;;25.00;;
36547;SDS011;22551;52.206;4.856;2023-02-15T12:24:57;52.72;;;25.52;;
36547;SDS011;22551;52.206;4.856;2023-02-15T12:30:04;54.60;;;25.05;;
36547;SDS011;22551;52.206;4.856;2023-02-15T12:35:18;50.38;;;24.30;;
36547;SDS011;22551;52.206;4.856;2023-02-15T12:40:29;56.65;;;25.05;;
36547;SDS011;22551;52.206;4.856;2023-02-15T12:45:36;50.63;;;23.83;;
36547;SDS011;22551;52.206;4.856;2023-02-15T12:50:41;52.72;;;25.45;;
36547;SDS011;22551;52.206;4.856;2023-02-15T12:55:49;49.13;;;23.67;;
36547;SDS011;22551;52.206;4.856;2023-02-15T13:01:04;52.25;;;25.63;;
36547;SDS011;22551;52.206;4.856;2023-02-15T13:06:16;52.70;;;25.15;;
36547;SDS011;22551;52.206;4.856;2023-02-15T13:11:20;48.58;;;24.58;;
36547;SDS011;22551;52.206;4.856;2023-02-15T13:16:29;52.22;;;24.90;;
36547;SDS011;22551;52.206;4.856;2023-02-15T13:21:36;50.78;;;25.40;;
36547;SDS011;22551;52.206;4.856;2023-02-15T13:26:43;55.50;;;25.52;;
36547;SDS011;22551;52.206;4.856;2023-02-15T13:31:47;50.33;;;24.93;;
36547;SDS011;22551;52.206;4.856;2023-02-15T13:36:57;56.30;;;25.70;;
36547;SDS011;22551;52.206;4.856;2023-02-15T13:42:13;53.22;;;25.50;;
36547;SDS011;22551;52.206;4.856;2023-02-15T13:47:23;49.30;;;24.95;;
36547;SDS011;22551;52.206;4.856;2023-02-15T13:52:33;50.38;;;23.38;;
36547;SDS011;22551;52.206;4.856;2023-02-15T14:03:29;63.90;;;24.33;;
36547;SDS011;22551;52.206;4.856;2023-02-15T14:09:15;43.72;;;22.05;;
36547;SDS011;22551;52.206;4.856;2023-02-15T14:14:32;52.75;;;23.70;;
36547;SDS011;22551;52.206;4.856;2023-02-15T14:20:06;48.08;;;21.98;;
36547;SDS011;22551;52.206;4.856;2023-02-15T14:25:23;52.50;;;24.10;;
36547;SDS011;22551;52.206;4.856;2023-02-15T14:30:30;48.88;;;22.55;;
36547;SDS011;22551;52.206;4.856;2023-02-15T14:35:36;48.65;;;23.33;;
36547;SDS011;22551;52.206;4.856;2023-02-15T14:40:42;44.92;;;20.60;;
36547;SDS011;22551;52.206;4.856;2023-02-15T14:46:07;48.85;;;23.17;;
36547;SDS011;22551;52.206;4.856;2023-02-15T14:57:24;44.78;;;21.80;;
36547;SDS011;22551;52.206;4.856;2023-02-15T15:02:43;49.67;;;21.38;;
36547;SDS011;22551;52.206;4.856;2023-02-15T15:07:49;53.05;;;23.25;;
36547;SDS011;22551;52.206;4.856;2023-02-15T15:12:56;44.15;;;21.63;;
36547;SDS011;22551;52.206;4.856;2023-02-15T15:18:00;45.78;;;21.67;;
36547;SDS011;22551;52.206;4.856;2023-02-15T15:28:56;46.22;;;20.58;;
36547;SDS011;22551;52.206;4.856;2023-02-15T15:40:13;44.25;;;19.63;;
36547;SDS011;22551;52.206;4.856;2023-02-15T15:51:25;50.13;;;20.75;;
36547;SDS011;22551;52.206;4.856;2023-02-15T15:56:32;67.10;;;22.45;;
36547;SDS011;22551;52.206;4.856;2023-02-15T16:01:39;45.08;;;20.92;;
36547;SDS011;22551;52.206;4.856;2023-02-15T16:06:44;46.47;;;22.52;;
36547;SDS011;22551;52.206;4.856;2023-02-15T16:11:49;48.10;;;21.88;;
36547;SDS011;22551;52.206;4.856;2023-02-15T16:16:56;49.03;;;22.60;;
36547;SDS011;22551;52.206;4.856;2023-02-15T16:22:02;54.00;;;21.63;;
36547;SDS011;22551;52.206;4.856;2023-02-15T16:27:17;48.33;;;23.08;;
36547;SDS011;22551;52.206;4.856;2023-02-15T16:32:33;49.17;;;22.27;;
36547;SDS011;22551;52.206;4.856;2023-02-15T16:37:36;46.67;;;21.55;;
36547;SDS011;22551;52.206;4.856;2023-02-15T16:42:38;50.70;;;23.60;;
36547;SDS011;22551;52.206;4.856;2023-02-15T16:47:42;53.15;;;22.77;;
36547;SDS011;22551;52.206;4.856;2023-02-15T16:52:48;54.88;;;23.35;;
36547;SDS011;22551;52.206;4.856;2023-02-15T16:57:51;48.80;;;22.60;;
36547;SDS011;22551;52.206;4.856;2023-02-15T17:03:01;56.80;;;23.98;;
36547;SDS011;22551;52.206;4.856;2023-02-15T17:08:10;58.38;;;25.48;;
36547;SDS011;22551;52.206;4.856;2023-02-15T17:13:17;58.92;;;25.15;;
36547;SDS011;22551;52.206;4.856;2023-02-15T17:18:21;53.50;;;23.40;;
36547;SDS011;22551;52.206;4.856;2023-02-15T17:23:26;59.92;;;23.45;;
36547;SDS011;22551;52.206;4.856;2023-02-15T17:28:31;59.22;;;25.65;;
36547;SDS011;22551;52.206;4.856;2023-02-15T17:33:37;55.63;;;26.40;;
36547;SDS011;22551;52.206;4.856;2023-02-15T17:38:40;61.20;;;25.33;;
36547;SDS011;22551;52.206;4.856;2023-02-15T17:44:09;57.42;;;24.77;;
36547;SDS011;22551;52.206;4.856;2023-02-15T17:49:18;59.45;;;24.90;;
36547;SDS011;22551;52.206;4.856;2023-02-15T17:54:26;56.30;;;25.92;;
36547;SDS011;22551;52.206;4.856;2023-02-15T17:59:46;57.50;;;25.95;;
36547;SDS011;22551;52.206;4.856;2023-02-15T18:05:10;53.92;;;25.40;;
36547;SDS011;22551;52.206;4.856;2023-02-15T18:15:51;58.90;;;26.15;;
36547;SDS011;22551;52.206;4.856;2023-02-15T18:20:54;60.72;;;26.40;;
36547;SDS011;22551;52.206;4.856;2023-02-15T18:25:56;60.65;;;26.25;;
36547;SDS011;22551;52.206;4.856;2023-02-15T18:30:58;55.13;;;25.67;;
36547;SDS011;22551;52.206;4.856;2023-02-15T18:36:03;65.55;;;25.48;;
36547;SDS011;22551;52.206;4.856;2023-02-15T18:41:13;62.13;;;26.50;;
36547;SDS011;22551;52.206;4.856;2023-02-15T18:46:18;56.42;;;24.27;;
36547;SDS011;22551;52.206;4.856;2023-02-15T18:51:22;53.67;;;23.38;;
36547;SDS011;22551;52.206;4.856;2023-02-15T18:56:25;66.93;;;27.13;;
36547;SDS011;22551;52.206;4.856;2023-02-15T19:01:27;52.33;;;22.80;;
36547;SDS011;22551;52.206;4.856;2023-02-15T19:06:31;54.60;;;23.95;;
36547;SDS011;22551;52.206;4.856;2023-02-15T19:11:33;58.30;;;24.13;;
36547;SDS011;22551;52.206;4.856;2023-02-15T19:16:35;56.83;;;24.13;;
36547;SDS011;22551;52.206;4.856;2023-02-15T19:21:39;56.72;;;23.73;;
36547;SDS011;22551;52.206;4.856;2023-02-15T19:26:41;49.67;;;22.48;;
36547;SDS011;22551;52.206;4.856;2023-02-15T19:31:44;48.65;;;22.42;;
36547;SDS011;22551;52.206;4.856;2023-02-15T19:36:48;55.90;;;23.95;;
36547;SDS011;22551;52.206;4.856;2023-02-15T19:41:52;55.20;;;22.02;;
36547;SDS011;22551;52.206;4.856;2023-02-15T19:46:55;49.17;;;24.67;;
36547;SDS011;22551;52.206;4.856;2023-02-15T19:51:58;57.78;;;24.02;;
36547;SDS011;22551;52.206;4.856;2023-02-15T19:57:01;57.08;;;23.95;;
36547;SDS011;22551;52.206;4.856;2023-02-15T20:02:03;53.30;;;22.08;;
36547;SDS011;22551;52.206;4.856;2023-02-15T20:07:09;45.92;;;22.27;;
36547;SDS011;22551;52.206;4.856;2023-02-15T20:12:22;53.28;;;23.05;;
36547;SDS011;22551;52.206;4.856;2023-02-15T20:17:27;56.97;;;24.25;;
36547;SDS011;22551;52.206;4.856;2023-02-15T20:22:31;51.75;;;23.67;;
36547;SDS011;22551;52.206;4.856;2023-02-15T20:27:33;52.88;;;22.30;;
36547;SDS011;22551;52.206;4.856;2023-02-15T20:32:36;49.97;;;21.55;;
36547;SDS011;22551;52.206;4.856;2023-02-15T20:37:42;51.38;;;22.27;;
36547;SDS011;22551;52.206;4.856;2023-02-15T20:42:48;51.63;;;23.15;;
36547;SDS011;22551;52.206;4.856;2023-02-15T20:47:51;63.03;;;24.98;;
36547;SDS011;22551;52.206;4.856;2023-02-15T20:52:57;49.83;;;22.20;;
36547;SDS011;22551;52.206;4.856;2023-02-15T20:58:01;52.47;;;23.92;;
36547;SDS011;22551;52.206;4.856;2023-02-15T21:03:19;55.00;;;23.17;;
36547;SDS011;22551;52.206;4.856;2023-02-15T21:08:26;54.92;;;22.70;;
36547;SDS011;22551;52.206;4.856;2023-02-15T21:13:29;59.53;;;24.65;;
36547;SDS011;22551;52.206;4.856;2023-02-15T21:18:34;60.08;;;25.02;;
36547;SDS011;22551;52.206;4.856;2023-02-15T21:23:39;56.75;;;24.33;;
36547;SDS011;22551;52.206;4.856;2023-02-15T21:28:43;55.97;;;25.45;;
36547;SDS011;22551;52.206;4.856;2023-02-15T21:33:46;59.78;;;24.52;;
36547;SDS011;22551;52.206;4.856;2023-02-15T21:38:49;48.50;;;22.50;;
36547;SDS011;22551;52.206;4.856;2023-02-15T21:43:55;51.08;;;23.15;;
36547;SDS011;22551;52.206;4.856;2023-02-15T21:49:16;58.05;;;23.65;;
36547;SDS011;22551;52.206;4.856;2023-02-15T21:54:19;54.33;;;23.33;;
36547;SDS011;22551;52.206;4.856;2023-02-15T21:59:21;54.15;;;23.30;;
36547;SDS011;22551;52.206;4.856;2023-02-15T22:04:28;55.92;;;24.33;;
36547;SDS011;22551;52.206;4.856;2023-02-15T22:09:32;51.17;;;21.63;;
36547;SDS011;22551;52.206;4.856;2023-02-15T22:14:35;45.97;;;21.58;;
36547;SDS011;22551;52.206;4.856;2023-02-15T22:19:39;51.50;;;22.97;;
36547;SDS011;22551;52.206;4.856;2023-02-15T22:24:43;52.47;;;23.55;;
36547;SDS011;22551;52.206;4.856;2023-02-15T22:29:46;51.27;;;21.97;;
36547;SDS011;22551;52.206;4.856;2023-02-15T22:34:49;52.15;;;22.38;;
36547;SDS011;22551;52.206;4.856;2023-02-15T22:39:53;49.83;;;22.50;;
36547;SDS011;22551;52.206;4.856;2023-02-15T22:44:56;53.63;;;23.35;;
36547;SDS011;22551;52.206;4.856;2023-02-15T22:49:58;55.15;;;22.70;;
36547;SDS011;22551;52.206;4.856;2023-02-15T22:55:03;52.60;;;22.08;;
36547;SDS011;22551;52.206;4.856;2023-02-15T23:00:07;53.77;;;24.60;;
36547;SDS011;22551;52.206;4.856;2023-02-15T23:05:16;57.00;;;24.13;;
36547;SDS011;22551;52.206;4.856;2023-02-15T23:10:22;52.92;;;22.42;;
36547;SDS011;22551;52.206;4.856;2023-02-15T23:15:26;49.50;;;22.75;;
36547;SDS011;22551;52.206;4.856;2023-02-15T23:20:28;49.10;;;22.65;;
36547;SDS011;22551;52.206;4.856;2023-02-15T23:25:32;42.15;;;21.25;;
36547;SDS011;22551;52.206;4.856;2023-02-15T23:30:34;51.03;;;22.42;;
36547;SDS011;22551;52.206;4.856;2023-02-15T23:35:36;56.13;;;24.42;;
36547;SDS011;22551;52.206;4.856;2023-02-15T23:40:47;50.10;;;22.73;;
36547;SDS011;22551;52.206;4.856;2023-02-15T23:46:21;54.42;;;23.60;;
36547;SDS011;22551;52.206;4.856;2023-02-15T23:51:28;52.35;;;24.30;;
36547;SDS011;22551;52.206;4.856;2023-02-15T23:56:33;55.42;;;24.95;;
